Time;durP1;ratioP1;P1;durP2;ratioP2;P2;SDS_P1;SDS_P2;PMS_P1;PMS_P2;Temp;Humidity;BMP_temperature;BMP_pressure;BME280_temperature;BME280_humidity;BME280_pressure;Samples;Min_cycle;Max_cycle;Signal;HPM_P1;HPM_P2
2020/12/24 00:02:12;;;;;;;2.20;2.10;;;9.60;99.90;;;10.47;100.00;97475.88;5228894;28;20194;-87
2020/12/24 00:04:44;;;;;;;1.83;1.73;;;9.70;99.90;;;10.37;100.00;97470.31;5227302;28;20197;-87
2020/12/24 00:07:16;;;;;;;1.90;1.80;;;9.60;99.90;;;10.44;100.00;97465.50;5233048;28;20199;-87
2020/12/24 00:09:48;;;;;;;2.00;1.90;;;9.60;99.90;;;10.36;100.00;97468.56;5227048;28;20308;-87
2020/12/24 00:12:21;;;;;;;2.25;2.05;;;9.50;99.90;;;10.27;100.00;97465.53;5224500;28;20193;-87
2020/12/24 00:14:53;;;;;;;1.83;1.83;;;9.50;99.90;;;10.22;100.00;97464.38;5217581;28;20212;-88
2020/12/24 00:17:25;;;;;;;2.00;1.90;;;9.50;99.90;;;10.24;100.00;97467.00;5214081;28;20221;-88
2020/12/24 00:19:57;;;;;;;2.17;2.08;;;9.50;99.90;;;10.35;100.00;97451.47;5218982;28;20310;-88
2020/12/24 00:22:28;;;;;;;2.10;2.00;;;9.50;99.90;;;10.28;100.00;97454.50;5212730;28;20212;-89
2020/12/24 00:25:00;;;;;;;2.00;1.90;;;9.50;99.90;;;10.26;100.00;97456.06;5212684;28;20216;-89
2020/12/24 00:27:33;;;;;;;2.13;2.03;;;9.50;99.90;;;10.21;100.00;97471.94;5223843;28;20559;-89
2020/12/24 00:30:06;;;;;;;2.17;2.05;;;9.50;99.90;;;10.21;100.00;97462.59;5221106;28;20605;-89
2020/12/24 00:32:38;;;;;;;2.13;1.92;;;9.50;99.90;;;10.18;100.00;97470.09;5232829;28;20209;-88
2020/12/24 00:35:10;;;;;;;3.25;2.00;;;9.40;99.90;;;10.17;100.00;97445.38;5221405;28;20206;-89
2020/12/24 00:37:43;;;;;;;2.15;2.05;;;9.50;99.90;;;10.14;100.00;97445.22;5219181;28;20651;-89
2020/12/24 00:40:15;;;;;;;2.10;2.00;;;9.50;99.90;;;10.07;100.00;97445.69;5231953;28;20221;-89
2020/12/24 00:42:48;;;;;;;1.85;1.80;;;9.40;99.90;;;10.06;100.00;97451.59;5232008;28;20217;-89
2020/12/24 00:45:20;;;;;;;2.10;1.95;;;9.40;99.90;;;10.21;100.00;97446.41;5231455;28;20198;-89
2020/12/24 00:47:52;;;;;;;2.13;2.03;;;9.50;99.90;;;10.09;100.00;97442.41;5231653;28;20204;-89
2020/12/24 00:50:24;;;;;;;1.88;1.80;;;9.30;99.90;;;10.04;100.00;97456.63;5222817;28;20218;-89
2020/12/24 00:52:56;;;;;;;2.20;2.10;;;9.30;99.90;;;10.11;100.00;97439.97;5212414;28;20209;-88
2020/12/24 00:55:28;;;;;;;1.92;1.83;;;9.20;99.90;;;10.14;99.34;97448.66;5208844;28;20201;-89
2020/12/24 00:58:01;;;;;;;2.97;2.00;;;9.20;99.90;;;10.10;99.51;97444.19;5228287;28;20692;-89
2020/12/24 01:00:34;;;;;;;2.00;1.90;;;9.20;99.90;;;10.04;99.94;97455.75;5214974;28;20224;-89
2020/12/24 01:03:06;;;;;;;2.13;2.03;;;9.20;99.90;;;9.93;99.44;97450.09;5209001;28;20198;-89
2020/12/24 01:05:38;;;;;;;2.20;2.00;;;9.10;99.90;;;10.03;99.61;97447.22;5219012;28;20208;-89
2020/12/24 01:08:10;;;;;;;2.28;1.98;;;9.20;99.90;;;9.87;97.98;97454.84;5226877;28;20282;-89
2020/12/24 01:10:42;;;;;;;2.28;2.17;;;9.10;99.90;;;9.87;98.42;97449.75;5208399;28;20218;-89
2020/12/24 01:13:15;;;;;;;1.92;1.83;;;9.00;99.90;;;9.86;97.26;97460.78;5209422;28;20577;-89
2020/12/24 01:15:47;;;;;;;1.90;1.80;;;9.00;99.90;;;9.85;98.29;97472.66;5222933;28;20206;-90
2020/12/24 01:18:19;;;;;;;1.77;1.67;;;9.00;99.90;;;9.73;96.03;97486.41;5228478;28;20217;-89
2020/12/24 01:20:51;;;;;;;2.05;1.95;;;8.90;99.90;;;9.72;98.81;97485.53;5229054;28;20308;-89
2020/12/24 01:23:23;;;;;;;2.10;2.00;;;9.00;99.90;;;9.67;99.50;97502.28;5225811;28;20201;-88
2020/12/24 01:25:55;;;;;;;2.83;2.10;;;9.00;99.90;;;9.65;99.77;97498.78;5214448;28;20784;-87
2020/12/24 01:28:28;;;;;;;1.85;1.75;;;9.00;99.90;;;9.61;99.65;97496.84;5215671;28;20248;-88
2020/12/24 01:31:01;;;;;;;2.10;2.00;;;9.00;99.90;;;9.49;99.71;97494.50;5208078;28;20226;-89
2020/12/24 01:33:33;;;;;;;1.95;1.73;;;8.90;99.90;;;9.45;100.00;97500.25;5220214;28;20193;-86
2020/12/24 01:36:05;;;;;;;2.13;2.03;;;8.90;99.90;;;9.47;100.00;97499.53;5249487;28;20212;-89
2020/12/24 01:38:40;;;;;;;1.75;1.70;;;8.90;99.90;;;9.39;100.00;97505.88;5247020;28;20227;-87
2020/12/24 01:41:12;;;;;;;4.10;1.92;;;8.80;99.90;;;9.39;99.56;97503.31;5228159;28;20309;-87
2020/12/24 01:43:45;;;;;;;1.98;1.88;;;8.80;99.90;;;9.30;100.00;97495.16;5211001;28;20205;-89
2020/12/24 01:46:17;;;;;;;2.15;1.95;;;8.80;99.90;;;9.29;99.83;97503.59;5245044;28;20207;-88
2020/12/24 01:48:49;;;;;;;2.25;2.15;;;8.70;99.90;;;9.22;100.00;97502.38;5249387;28;20581;-88
2020/12/24 01:51:27;;;;;;;2.20;1.92;;;8.70;99.90;;;9.21;100.00;97515.03;5228147;28;20221;-88
2020/12/24 01:54:00;;;;;;;2.15;2.05;;;8.70;99.90;;;9.16;100.00;97506.25;5228744;28;20215;-90
2020/12/24 01:56:32;;;;;;;1.95;1.85;;;8.60;99.90;;;9.15;100.00;97523.22;5246685;28;20205;-88
2020/12/24 01:59:06;;;;;;;2.50;2.25;;;8.60;99.90;;;9.14;100.00;97523.13;5248279;28;20223;-87
2020/12/24 02:01:39;;;;;;;2.30;2.00;;;8.60;99.90;;;9.11;100.00;97510.22;5219023;28;20212;-88
2020/12/24 02:04:11;;;;;;;1.90;1.80;;;8.60;99.90;;;9.06;100.00;97519.25;5207975;28;20187;-88
2020/12/24 02:06:45;;;;;;;2.13;2.00;;;8.60;99.90;;;9.10;100.00;97544.13;5207596;28;20206;-88
2020/12/24 02:09:17;;;;;;;2.00;1.80;;;8.60;99.90;;;9.22;100.00;97552.50;5207871;28;20194;-87
2020/12/24 02:11:49;;;;;;;1.83;1.73;;;8.50;99.90;;;9.25;100.00;97562.88;5224766;28;20209;-88
2020/12/24 02:14:22;;;;;;;1.77;1.67;;;8.50;99.90;;;9.14;100.00;97563.94;5211094;28;20200;-87
2020/12/24 02:16:54;;;;;;;2.08;1.90;;;8.50;99.90;;;9.23;100.00;97528.75;5228234;28;20197;-88
2020/12/24 02:19:40;;;;;;;2.10;2.00;;;8.50;99.90;;;9.05;100.00;97505.66;5207272;28;20217;-88
2020/12/24 02:22:14;;;;;;;2.00;1.90;;;8.50;99.90;;;9.07;100.00;97521.91;5207435;28;20231;-88
2020/12/24 02:24:46;;;;;;;1.83;1.73;;;8.40;99.90;;;9.05;100.00;97515.84;5227600;28;20292;-88
2020/12/24 02:27:18;;;;;;;2.15;1.85;;;8.40;99.90;;;8.90;100.00;97503.09;5228123;28;20224;-89
2020/12/24 02:29:50;;;;;;;1.67;1.58;;;8.40;99.90;;;8.96;100.00;97493.25;5225350;28;20248;-88
2020/12/24 02:32:22;;;;;;;2.45;2.35;;;8.30;99.90;;;8.91;100.00;97484.47;5212181;28;20197;-89
2020/12/24 02:34:55;;;;;;;2.20;2.10;;;8.30;99.90;;;8.93;100.00;97464.19;5225245;28;20228;-88
2020/12/24 02:37:28;;;;;;;2.43;1.90;;;8.30;99.90;;;8.84;100.00;97454.31;5207105;28;20198;-89
2020/12/24 02:40:00;;;;;;;1.80;1.60;;;8.30;99.90;;;8.81;100.00;97436.28;5207360;28;20247;-88
2020/12/24 02:42:32;;;;;;;2.10;1.70;;;8.30;99.90;;;8.86;100.00;97424.69;5207198;28;20753;-88
2020/12/24 02:45:04;;;;;;;1.92;1.75;;;8.30;99.90;;;8.87;100.00;97385.69;5207820;28;20293;-88
2020/12/24 02:47:37;;;;;;;1.88;1.77;;;8.20;99.90;;;8.96;100.00;97401.50;5226684;28;20205;-88
2020/12/24 02:50:10;;;;;;;2.80;1.98;;;8.20;99.90;;;8.82;100.00;97404.94;5226730;28;20225;-88
2020/12/24 02:52:43;;;;;;;2.10;2.00;;;8.30;99.90;;;8.81;100.00;97392.97;5227700;28;20683;-88
2020/12/24 02:55:15;;;;;;;2.65;1.80;;;8.30;99.90;;;8.86;100.00;97398.34;5219992;28;20198;-88
2020/12/24 02:57:47;;;;;;;2.10;2.00;;;8.30;99.90;;;8.83;100.00;97401.59;5206809;28;20226;-88
2020/12/24 03:00:19;;;;;;;1.83;1.73;;;8.30;99.90;;;8.83;100.00;97404.13;5216821;28;20217;-88
2020/12/24 03:02:51;;;;;;;1.70;1.60;;;8.30;99.90;;;8.82;100.00;97407.50;5227308;28;20685;-88
2020/12/24 03:05:23;;;;;;;2.10;2.00;;;8.30;99.90;;;8.79;100.00;97397.13;5216947;28;20650;-88
2020/12/24 03:07:56;;;;;;;2.30;2.10;;;8.30;99.90;;;8.75;100.00;97395.19;5206680;28;20204;-88
2020/12/24 03:10:27;;;;;;;2.07;1.87;;;8.20;99.90;;;8.78;100.00;97415.75;5207058;28;20711;-88
2020/12/24 03:12:59;;;;;;;2.60;1.90;;;8.20;99.90;;;8.81;100.00;97415.91;5206383;28;20222;-88
2020/12/24 03:15:31;;;;;;;1.63;1.52;;;8.20;99.90;;;8.80;100.00;97429.44;5207080;28;20206;-89
2020/12/24 03:18:03;;;;;;;1.95;1.85;;;8.10;99.90;;;8.78;100.00;97437.03;5207487;28;20597;-88
2020/12/24 03:20:35;;;;;;;2.10;2.00;;;8.10;99.90;;;8.83;100.00;97444.03;5206765;28;20229;-89
2020/12/24 03:23:08;;;;;;;2.30;1.73;;;8.00;99.90;;;8.81;100.00;97449.03;5206763;28;20572;-88
2020/12/24 03:25:41;;;;;;;1.90;1.80;;;7.90;99.90;;;8.69;100.00;97449.22;5206537;28;20230;-88
2020/12/24 03:28:13;;;;;;;2.20;2.00;;;7.90;99.90;;;8.63;100.00;97450.53;5206160;28;20221;-88
2020/12/24 03:30:45;;;;;;;3.20;1.70;;;7.90;99.90;;;8.53;100.00;97439.81;5210683;28;20228;-88
2020/12/24 03:33:17;;;;;;;2.00;1.90;;;7.90;99.90;;;8.58;100.00;97442.63;5226975;28;20574;-88
2020/12/24 03:35:49;;;;;;;1.93;1.83;;;7.90;99.90;;;8.54;100.00;97440.69;5217263;28;20204;-88
2020/12/24 03:38:22;;;;;;;2.17;2.08;;;7.80;99.90;;;8.54;100.00;97428.84;5226562;28;20606;-88
2020/12/24 03:40:54;;;;;;;1.47;1.37;;;7.90;99.90;;;8.53;100.00;97416.91;5219717;28;20576;-88
2020/12/24 03:43:26;;;;;;;2.00;1.90;;;7.80;99.90;;;8.55;100.00;97422.94;5206207;28;20564;-87
2020/12/24 03:45:58;;;;;;;2.30;2.20;;;7.80;99.90;;;8.52;100.00;97404.94;5206957;28;20202;-87
2020/12/24 03:48:30;;;;;;;2.43;2.03;;;7.80;99.90;;;8.52;100.00;97412.59;5206444;28;20190;-87
2020/12/24 03:51:02;;;;;;;2.30;2.20;;;7.80;99.90;;;8.50;100.00;97404.00;5206122;28;20315;-87
2020/12/24 03:53:35;;;;;;;2.05;1.95;;;7.80;99.90;;;8.59;100.00;97401.09;5206441;28;20198;-87
2020/12/24 03:56:07;;;;;;;3.80;2.03;;;7.90;99.90;;;8.48;100.00;97415.75;5206091;28;20193;-87
2020/12/24 03:58:40;;;;;;;2.00;1.80;;;7.80;99.90;;;8.38;100.00;97400.69;5207601;28;20214;-88
2020/12/24 04:01:12;;;;;;;2.30;2.10;;;7.70;99.90;;;8.26;100.00;97398.31;5205677;28;20717;-87
2020/12/24 04:03:44;;;;;;;1.60;1.50;;;7.60;99.90;;;8.27;100.00;97409.38;5206256;28;20216;-87
2020/12/24 04:06:15;;;;;;;1.90;1.80;;;7.60;99.90;;;8.25;100.00;97395.69;5206406;28;20200;-87
2020/12/24 04:08:48;;;;;;;2.00;1.90;;;7.50;99.90;;;8.35;100.00;97409.06;5207108;28;20702;-87
2020/12/24 04:11:20;;;;;;;1.90;1.80;;;7.60;99.90;;;8.26;100.00;97423.78;5205729;28;20237;-87
2020/12/24 04:13:52;;;;;;;2.03;1.93;;;7.50;99.90;;;8.16;100.00;97420.63;5212726;28;20201;-87
2020/12/24 04:16:25;;;;;;;2.97;2.10;;;7.50;99.90;;;8.19;100.00;97420.78;5226466;28;20208;-87
2020/12/24 04:18:56;;;;;;;2.20;2.10;;;7.50;99.90;;;8.23;100.00;97415.09;5224983;28;20588;-86
2020/12/24 04:21:28;;;;;;;2.00;2.00;;;7.50;99.90;;;8.21;100.00;97425.19;5226469;28;20213;-87
2020/12/24 04:24:01;;;;;;;2.73;1.80;;;7.50;99.90;;;8.21;100.00;97421.75;5213188;28;20209;-87
2020/12/24 04:26:33;;;;;;;1.87;1.77;;;7.50;99.90;;;8.25;100.00;97427.13;5207925;28;20193;-87
2020/12/24 04:29:05;;;;;;;2.10;2.00;;;7.60;99.90;;;8.28;100.00;97417.09;5222805;28;20200;-86
2020/12/24 04:31:42;;;;;;;2.28;1.98;;;7.60;99.90;;;8.27;100.00;97409.38;5209692;28;20214;-87
2020/12/24 04:34:14;;;;;;;2.30;2.10;;;7.50;99.90;;;8.24;100.00;97409.19;5224220;28;20193;-88
2020/12/24 04:36:49;;;;;;;1.87;1.73;;;7.50;99.90;;;8.23;100.00;97410.00;5230444;28;20205;-88
2020/12/24 04:39:22;;;;;;;2.00;1.90;;;7.50;99.90;;;8.22;100.00;97408.25;5216300;28;20616;-88
2020/12/24 04:41:57;;;;;;;2.40;2.00;;;7.50;99.90;;;8.21;100.00;97409.91;5210025;28;20224;-88
2020/12/24 04:44:30;;;;;;;1.90;1.77;;;7.50;99.90;;;8.20;100.00;97410.69;5209308;28;20196;-88
2020/12/24 04:47:03;;;;;;;1.80;1.70;;;7.50;99.90;;;8.30;100.00;97414.66;5215182;28;20653;-88
2020/12/24 04:49:36;;;;;;;2.37;2.17;;;7.40;99.90;;;8.48;97.53;97382.66;5229709;28;20205;-88
2020/12/24 04:52:09;;;;;;;1.80;1.70;;;7.40;99.90;;;8.58;95.26;97386.59;5211474;28;20208;-88
2020/12/24 04:54:42;;;;;;;2.43;2.17;;;7.50;99.90;;;8.55;95.32;97399.16;5209225;28;20198;-88
2020/12/24 04:57:14;;;;;;;1.93;1.83;;;7.60;99.90;;;8.57;94.61;97401.00;5209726;28;20191;-87
2020/12/24 04:59:46;;;;;;;2.43;1.80;;;7.70;99.90;;;8.56;94.63;97399.25;5208758;28;20232;-88
2020/12/24 05:02:18;;;;;;;1.90;1.80;;;7.80;99.90;;;8.55;93.30;97402.56;5208936;28;20236;-87
2020/12/24 05:04:53;;;;;;;2.00;1.90;;;7.80;99.90;;;8.56;92.46;97401.78;5208919;28;20221;-87
2020/12/24 05:07:25;;;;;;;2.40;1.43;;;7.90;99.90;;;8.57;91.84;97398.44;5210884;28;20677;-88
2020/12/24 05:09:58;;;;;;;1.63;1.63;;;7.90;99.90;;;8.52;91.03;97394.75;5212254;28;20303;-88
2020/12/24 05:12:31;;;;;;;2.60;1.90;;;8.00;99.90;;;8.48;91.47;97384.31;5209226;28;20194;-87
2020/12/24 05:15:03;;;;;;;1.83;1.60;;;7.90;99.90;;;8.54;91.25;97380.44;5209272;28;20217;-88
2020/12/24 05:17:35;;;;;;;1.90;1.80;;;8.00;99.90;;;8.45;91.10;97374.84;5209045;28;20202;-87
2020/12/24 05:20:08;;;;;;;1.93;1.83;;;8.00;99.90;;;8.46;92.40;97380.81;5208777;28;20218;-88
2020/12/24 05:22:40;;;;;;;1.80;1.70;;;7.90;99.90;;;8.48;92.69;97382.66;5221732;28;20207;-87
2020/12/24 05:25:19;;;;;;;2.20;2.10;;;7.90;99.90;;;8.41;93.44;97372.88;5227944;28;20592;-88
2020/12/24 05:27:56;;;;;;;2.07;1.87;;;7.80;99.90;;;8.28;93.52;97365.31;5229362;28;20199;-87
2020/12/24 05:30:28;;;;;;;2.00;1.90;;;7.80;99.90;;;8.23;94.62;97369.25;5228141;28;20239;-88
2020/12/24 05:33:01;;;;;;;2.00;1.90;;;7.70;99.90;;;8.20;95.51;97364.00;5229155;28;20228;-88
2020/12/24 05:35:33;;;;;;;2.03;2.00;;;7.70;99.90;;;8.16;96.38;97372.25;5209892;28;20186;-88
2020/12/24 05:38:05;;;;;;;2.63;2.33;;;7.60;99.90;;;8.16;97.00;97367.16;5208038;28;20194;-88
2020/12/24 05:40:38;;;;;;;2.57;2.40;;;7.60;99.90;;;8.15;97.11;97373.91;5209726;28;20263;-88
2020/12/24 05:43:14;;;;;;;2.60;2.40;;;7.60;99.90;;;8.10;96.69;97375.31;5208232;28;20210;-87
2020/12/24 05:45:46;;;;;;;2.60;1.50;;;7.50;99.90;;;8.17;96.47;97381.63;5227756;28;20276;-88
2020/12/24 05:48:18;;;;;;;1.77;1.67;;;7.60;99.90;;;8.18;95.94;97376.63;5228304;28;20189;-88
2020/12/24 05:50:50;;;;;;;1.83;1.73;;;7.50;99.90;;;8.16;94.77;97382.44;5228429;28;20245;-87
2020/12/24 05:53:23;;;;;;;3.10;2.90;;;7.50;99.90;;;8.16;94.16;97387.53;5226560;28;20193;-88
2020/12/24 05:55:56;;;;;;;2.67;1.90;;;7.50;99.90;;;8.11;92.44;97383.03;5227047;28;20206;-88
2020/12/24 05:58:28;;;;;;;1.80;1.70;;;7.40;99.90;;;8.24;90.99;97388.81;5228390;28;20225;-88
2020/12/24 06:01:01;;;;;;;3.43;2.10;;;7.50;99.90;;;8.18;92.37;97385.94;5226503;28;20304;-86
2020/12/24 06:03:36;;;;;;;5.47;2.07;;;7.50;99.90;;;8.18;90.63;97384.25;5211113;28;20209;-87
2020/12/24 06:06:18;;;;;;;2.20;2.00;;;7.60;99.90;;;8.11;89.86;97377.06;5226767;28;20196;-87
2020/12/24 06:08:58;;;;;;;2.23;1.83;;;7.50;99.90;;;8.16;91.35;97370.59;5222185;28;20204;-87
2020/12/24 06:11:44;;;;;;;2.33;2.13;;;7.60;99.90;;;8.08;91.33;97365.03;5207057;28;20226;-87
2020/12/24 06:14:33;;;;;;;3.10;1.90;;;7.50;99.90;;;7.96;92.10;97361.78;5209665;28;20223;-87
2020/12/24 06:17:07;;;;;;;2.50;2.30;;;7.40;99.90;;;8.03;92.66;97350.28;5229307;28;20197;-88
2020/12/24 06:19:41;;;;;;;2.50;2.30;;;7.40;99.90;;;7.98;93.39;97337.28;5215795;28;20247;-87
2020/12/24 06:22:20;;;;;;;3.00;1.67;;;7.40;99.90;;;7.88;93.72;97340.09;5207614;28;20566;-88
2020/12/24 06:24:55;;;;;;;3.03;2.03;;;7.40;99.90;;;7.87;94.25;97343.44;5222048;28;20210;-88
2020/12/24 06:27:33;;;;;;;3.67;2.20;;;7.30;99.90;;;7.81;94.62;97340.50;5208347;28;20197;-87
2020/12/24 06:30:07;;;;;;;2.07;1.90;;;7.30;99.90;;;7.77;94.64;97344.53;5226797;28;20299;-87
2020/12/24 06:32:48;;;;;;;3.00;1.57;;;7.20;99.90;;;7.64;95.26;97332.78;5236447;28;20193;-87
2020/12/24 06:35:37;;;;;;;2.07;1.90;;;7.10;99.90;;;7.58;95.79;97337.50;5222059;28;20576;-87
2020/12/24 06:38:11;;;;;;;2.80;1.90;;;7.10;99.90;;;7.59;95.52;97339.25;5213906;28;20271;-87
2020/12/24 06:40:43;;;;;;;3.43;1.90;;;7.10;99.90;;;7.53;96.07;97338.88;5212604;28;20226;-87
2020/12/24 06:43:16;;;;;;;2.07;1.97;;;7.00;99.90;;;7.52;96.30;97341.31;5206953;28;20212;-87
2020/12/24 06:45:56;;;;;;;2.47;1.87;;;6.90;99.90;;;7.54;97.21;97340.63;5207050;28;20208;-87
2020/12/24 06:48:28;;;;;;;3.03;2.23;;;7.00;99.90;;;7.59;97.37;97334.16;5215438;28;20197;-86
2020/12/24 06:51:02;;;;;;;2.37;2.17;;;6.90;99.90;;;7.76;95.53;97326.66;5227966;28;20606;-86
2020/12/24 06:53:35;;;;;;;2.53;2.40;;;7.10;99.90;;;7.67;95.69;97325.31;5218976;28;20658;-87
2020/12/24 06:56:25;;;;;;;4.23;2.30;;;7.10;99.90;;;7.78;95.84;97320.84;5218668;28;20260;-87
2020/12/24 06:59:01;;;;;;;3.73;2.20;;;7.10;99.90;;;7.79;96.27;97316.66;5221696;28;20214;-87
2020/12/24 07:01:35;;;;;;;4.67;2.53;;;7.10;99.90;;;7.81;95.12;97320.16;5207623;28;20217;-87
2020/12/24 07:04:12;;;;;;;3.70;2.33;;;7.10;99.90;;;7.88;95.84;97305.34;5213835;28;20277;-85
2020/12/24 07:06:53;;;;;;;2.67;2.47;;;7.20;99.90;;;8.15;94.97;97299.19;5219543;28;20216;-87
2020/12/24 07:09:45;;;;;;;3.13;2.50;;;7.40;99.90;;;8.17;93.00;97302.72;5217052;28;20276;-88
2020/12/24 07:12:34;;;;;;;2.73;2.50;;;7.40;99.90;;;7.97;92.99;97305.00;5226452;28;20201;-87
2020/12/24 07:15:28;;;;;;;2.80;2.60;;;7.20;99.90;;;7.90;92.78;97303.78;5224337;28;20205;-86
2020/12/24 07:18:01;;;;;;;2.03;1.87;;;7.20;99.90;;;8.03;94.01;97296.84;5224420;28;20650;-86
2020/12/24 07:20:35;;;;;;;2.87;2.60;;;7.30;99.90;;;7.99;93.88;97300.88;5206815;28;20685;-87
2020/12/24 07:23:09;;;;;;;3.23;2.10;;;7.30;99.90;;;7.93;93.39;97294.56;5212041;28;20204;-86
2020/12/24 07:25:46;;;;;;;3.33;2.20;;;7.30;99.90;;;7.90;94.38;97295.28;5222518;28;20201;-86
2020/12/24 07:28:18;;;;;;;2.97;2.23;;;7.30;99.90;;;7.86;94.00;97295.84;5233412;28;20212;-86
2020/12/24 07:30:57;;;;;;;2.97;2.40;;;7.30;99.90;;;7.86;94.61;97298.41;5232361;28;20659;-87
2020/12/24 07:33:30;;;;;;;2.63;2.40;;;7.20;99.90;;;7.81;94.86;97297.25;5243422;28;20206;-87
2020/12/24 07:36:06;;;;;;;2.30;2.20;;;7.20;99.90;;;7.96;94.85;97298.16;5246048;28;20200;-86
2020/12/24 07:38:39;;;;;;;2.30;2.17;;;7.30;99.90;;;8.02;95.24;97308.69;5215782;28;20222;-86
2020/12/24 07:41:15;;;;;;;2.77;2.57;;;7.30;99.90;;;8.03;94.06;97302.81;5217705;28;20665;-87
2020/12/24 07:43:47;;;;;;;2.70;2.47;;;7.30;99.90;;;7.90;93.33;97300.34;5220136;28;20216;-86
2020/12/24 07:46:23;;;;;;;4.30;2.53;;;7.30;99.90;;;7.88;94.32;97299.38;5229248;28;20201;-87
2020/12/24 07:49:03;;;;;;;2.20;2.10;;;7.30;99.90;;;7.90;94.29;97302.91;5230832;28;20833;-86
2020/12/24 07:51:35;;;;;;;2.40;2.20;;;7.30;99.90;;;7.98;95.28;97294.00;5231193;28;20251;-87
2020/12/24 07:54:15;;;;;;;2.77;2.57;;;7.40;99.90;;;7.98;93.27;97291.47;5231797;28;20311;-87
2020/12/24 07:56:47;;;;;;;3.33;2.30;;;7.40;99.90;;;7.97;93.71;97282.09;5225725;28;20205;-87
2020/12/24 07:59:23;;;;;;;3.20;2.90;;;7.40;99.90;;;7.95;91.85;97275.16;5231608;28;20230;-86
2020/12/24 08:02:04;;;;;;;5.30;2.63;;;7.40;99.90;;;7.90;91.36;97280.00;5235356;28;20193;-88
2020/12/24 08:04:36;;;;;;;3.17;2.70;;;7.30;99.90;;;8.13;90.80;97282.19;5235873;28;20667;-86
2020/12/24 08:07:11;;;;;;;3.77;2.73;;;7.40;99.90;;;8.18;89.08;97276.47;5234408;28;20197;-86
2020/12/24 08:09:43;;;;;;;4.87;2.53;;;7.50;99.90;;;8.05;88.18;97270.69;5230245;28;20271;-87
2020/12/24 08:12:22;;;;;;;4.07;3.13;;;7.50;99.90;;;8.18;89.78;97271.38;5232590;28;20201;-87
2020/12/24 08:14:54;;;;;;;4.57;2.50;;;7.60;99.90;;;8.28;87.09;97279.63;5222242;28;20201;-87
2020/12/24 08:17:33;;;;;;;3.30;2.17;;;7.60;99.90;;;8.40;81.38;97268.41;5215725;28;20210;-86
2020/12/24 08:20:08;;;;;;;5.27;2.60;;;7.80;99.90;;;8.45;83.70;97270.41;5224031;28;20224;-86
2020/12/24 08:22:48;;;;;;;4.13;2.03;;;7.90;99.90;;;8.42;82.13;97261.75;5223062;28;20204;-87
2020/12/24 08:25:21;;;;;;;3.90;2.13;;;7.90;99.90;;;8.47;82.56;97268.84;5215371;28;20198;-86
2020/12/24 08:27:54;;;;;;;3.50;2.10;;;7.90;99.90;;;8.57;83.98;97258.34;5215388;28;20209;-86
2020/12/24 08:30:26;;;;;;;3.77;2.37;;;8.00;99.90;;;8.60;79.95;97260.19;5226426;28;20578;-86
2020/12/24 08:32:59;;;;;;;4.50;2.13;;;8.10;99.90;;;8.54;77.88;97257.31;5216120;28;20342;-86
2020/12/24 08:35:33;;;;;;;4.20;2.77;;;8.10;99.90;;;8.56;80.43;97246.41;5227196;28;20265;-86
2020/12/24 08:38:16;;;;;;;4.53;2.30;;;8.10;99.90;;;8.61;81.16;97267.03;5223615;28;20197;-86
2020/12/24 08:40:48;;;;;;;4.67;2.13;;;8.20;99.90;;;8.61;83.40;97261.94;5229781;28;20309;-85
2020/12/24 08:43:27;;;;;;;2.90;2.67;;;8.10;99.90;;;8.62;77.71;97262.84;5237195;28;20213;-86
2020/12/24 08:46:01;;;;;;;3.07;2.30;;;8.20;99.90;;;8.57;78.67;97255.81;5236101;28;20220;-86
2020/12/24 08:48:36;;;;;;;4.57;2.80;;;8.20;99.90;;;8.69;81.38;97263.25;5235340;28;20197;-86
2020/12/24 08:51:13;;;;;;;4.80;2.63;;;8.20;99.90;;;8.65;81.14;97261.34;5235562;28;20740;-85
2020/12/24 08:54:06;;;;;;;3.70;2.30;;;8.10;99.90;;;8.56;80.09;97271.91;5236316;28;20204;-86
2020/12/24 08:56:39;;;;;;;4.17;2.47;;;8.10;99.90;;;8.66;82.53;97267.28;5231993;28;20243;-85
2020/12/24 08:59:13;;;;;;;4.20;2.50;;;8.10;99.90;;;8.63;80.59;97257.81;5225387;28;20252;-87
2020/12/24 09:01:46;;;;;;;7.20;2.50;;;8.10;99.90;;;8.54;79.71;97258.19;5223910;28;20243;-86
2020/12/24 09:04:19;;;;;;;3.67;2.40;;;8.10;99.90;;;8.50;79.38;97271.56;5224391;28;20197;-87
2020/12/24 09:06:51;;;;;;;3.80;2.37;;;8.10;99.90;;;8.46;80.08;97282.34;5248295;28;20257;-86
2020/12/24 09:09:25;;;;;;;3.27;2.13;;;8.10;99.90;;;8.50;80.22;97266.47;5229347;28;20285;-86
2020/12/24 09:12:11;;;;;;;1.97;1.80;;;8.00;99.90;;;8.48;81.07;97288.41;5214591;28;20586;-85
2020/12/24 09:14:43;;;;;;;3.53;2.00;;;8.00;99.90;;;8.42;81.23;97280.44;5219825;28;20212;-86
2020/12/24 09:17:16;;;;;;;2.43;2.23;;;7.90;99.90;;;8.45;78.03;97283.16;5236309;28;20232;-85
2020/12/24 09:20:11;;;;;;;2.53;2.10;;;8.00;99.90;;;8.53;78.96;97281.03;5215445;28;20232;-85
2020/12/24 09:22:50;;;;;;;2.23;2.00;;;8.00;99.90;;;8.42;77.78;97290.63;5230780;28;20208;-84
2020/12/24 09:25:30;;;;;;;3.50;2.20;;;8.00;99.90;;;8.52;78.61;97285.22;5215958;28;20258;-86
2020/12/24 09:28:04;;;;;;;3.50;2.20;;;8.00;99.90;;;8.56;78.52;97289.72;5231404;28;20260;-86
2020/12/24 09:30:37;;;;;;;2.70;2.27;;;8.00;99.90;;;8.69;80.68;97287.84;5237510;28;20252;-85
2020/12/24 09:33:09;;;;;;;3.20;1.93;;;8.10;99.90;;;8.73;77.22;97293.19;5238226;28;20198;-84
2020/12/24 09:35:43;;;;;;;3.00;2.10;;;8.20;99.90;;;8.81;78.12;97280.84;5229654;28;20197;-86
2020/12/24 09:38:15;;;;;;;3.17;2.00;;;8.20;99.90;;;8.82;77.19;97305.56;5237416;28;20284;-84
2020/12/24 09:40:47;;;;;;;4.30;1.90;;;8.30;99.90;;;8.71;76.71;97286.25;5224996;28;20226;-86
2020/12/24 09:43:20;;;;;;;2.90;2.00;;;8.20;99.90;;;8.72;78.75;97278.69;5227020;28;20300;-89
2020/12/24 09:45:54;;;;;;;3.53;2.00;;;8.10;99.90;;;8.81;75.39;97278.31;5227783;28;20216;-89
2020/12/24 09:48:26;;;;;;;1.90;1.80;;;8.20;99.90;;;8.92;77.47;97276.34;5227519;28;20207;-91
2020/12/24 09:51:08;;;;;;;2.53;1.67;;;8.20;99.90;;;8.91;77.32;97283.13;5228985;28;20300;-88
2020/12/24 09:53:40;;;;;;;5.03;1.93;;;8.10;99.90;;;9.00;73.94;97270.88;5222647;28;20291;-85
2020/12/24 09:56:18;;;;;;;2.60;2.10;;;8.30;99.90;;;8.96;75.08;97279.16;5234441;28;20205;-85
2020/12/24 09:58:50;;;;;;;2.47;2.10;;;8.30;99.90;;;8.94;75.24;97275.63;5235994;28;20232;-86
2020/12/24 10:01:23;;;;;;;2.07;1.87;;;8.20;99.90;;;8.95;74.10;97274.84;5218892;28;20230;-85
2020/12/24 10:03:55;;;;;;;3.50;2.00;;;8.20;99.90;;;8.92;75.90;97274.66;5218927;28;20194;-85
2020/12/24 10:06:30;;;;;;;1.73;1.63;;;8.30;99.90;;;8.96;74.52;97276.59;5221079;28;20206;-88
2020/12/24 10:09:03;;;;;;;2.10;2.00;;;8.30;99.90;;;8.93;76.08;97276.44;5225610;28;20661;-87
2020/12/24 10:11:36;;;;;;;2.60;1.90;;;8.30;99.90;;;8.94;74.77;97274.78;5226732;28;20681;-88
2020/12/24 10:14:08;;;;;;;4.60;2.20;;;8.20;99.90;;;8.95;73.63;97271.41;5236211;28;20654;-87
2020/12/24 10:16:40;;;;;;;2.50;2.40;;;8.20;99.90;;;8.88;74.34;97269.34;5235158;28;20204;-88
2020/12/24 10:19:24;;;;;;;2.43;2.23;;;8.30;99.90;;;8.82;76.19;97269.91;5233799;28;20682;-87
2020/12/24 10:21:57;;;;;;;2.07;1.87;;;8.30;99.90;;;8.83;75.71;97260.56;5234309;28;20265;-89
2020/12/24 10:24:29;;;;;;;2.07;1.80;;;8.20;99.90;;;8.99;73.18;97253.84;5234261;28;20232;-87
2020/12/24 10:27:02;;;;;;;2.00;1.90;;;8.30;99.90;;;9.00;73.08;97250.47;5235667;28;20224;-89
2020/12/24 10:29:34;;;;;;;2.00;1.70;;;8.20;99.90;;;8.96;73.13;97251.13;5237858;28;20285;-89
2020/12/24 10:32:07;;;;;;;4.37;2.33;;;8.20;99.90;;;8.99;73.18;97255.50;5232121;28;20213;-88
2020/12/24 10:34:39;;;;;;;2.90;2.03;;;8.20;99.90;;;8.90;73.69;97258.44;5234390;28;20201;-87
2020/12/24 10:37:13;;;;;;;2.53;1.97;;;8.20;99.90;;;8.86;72.84;97253.97;5234975;28;20241;-88
2020/12/24 10:39:45;;;;;;;2.07;1.97;;;8.30;99.90;;;8.88;73.44;97244.75;5234428;23;20229;-75
2020/12/24 10:42:17;;;;;;;1.63;1.53;;;8.20;99.90;;;8.85;73.99;97261.53;5207339;28;20241;-74
2020/12/24 10:44:49;;;;;;;1.85;1.73;;;8.20;99.90;;;8.95;72.98;97239.16;5205522;28;20245;-76
2020/12/24 10:47:21;;;;;;;2.10;2.00;;;8.20;99.90;;;8.89;73.30;97245.59;5205516;28;20285;-74
2020/12/24 10:49:54;;;;;;;1.80;1.70;;;8.20;99.90;;;8.98;72.80;97249.50;5216435;28;20193;-74
2020/12/24 10:52:27;;;;;;;2.10;1.90;;;8.20;99.90;;;8.93;73.27;97243.31;5205967;28;20264;-76
2020/12/24 10:55:13;;;;;;;2.57;2.37;;;8.30;99.90;;;8.92;73.74;97239.00;5205831;28;20280;-78
2020/12/24 10:57:46;;;;;;;2.70;1.60;;;8.30;99.90;;;8.93;74.42;97247.53;5205680;28;20201;-77
2020/12/24 11:00:18;;;;;;;2.57;1.87;;;8.20;99.90;;;8.86;75.41;97251.41;5202883;28;20213;-77